sensor_id;sensor_type;location;lat;lon;timestamp;pressure;altitude;pressure_sealevel;temperature;humidity
49943;BME280;36011;53.362;58.948;2022-08-14T00:02:02;97150.13;;;16.39;60.41
49943;BME280;36011;53.362;58.948;2022-08-14T00:05:04;97154.00;;;16.35;60.27
49943;BME280;36011;53.362;58.948;2022-08-14T00:08:07;97155.44;;;16.39;60.31
49943;BME280;36011;53.362;58.948;2022-08-14T00:11:08;97155.94;;;16.33;60.65
49943;BME280;36011;53.362;58.948;2022-08-14T00:14:11;97159.94;;;16.27;60.85
49943;BME280;36011;53.362;58.948;2022-08-14T00:17:17;97159.03;;;16.17;61.28
49943;BME280;36011;53.362;58.948;2022-08-14T00:20:22;97160.50;;;16.10;61.11
49943;BME280;36011;53.362;58.948;2022-08-14T00:23:24;97161.25;;;16.01;61.38
49943;BME280;36011;53.362;58.948;2022-08-14T00:26:25;97160.94;;;15.94;61.29
49943;BME280;36011;53.362;58.948;2022-08-14T00:29:31;97169.63;;;15.85;62.65
49943;BME280;36011;53.362;58.948;2022-08-14T00:32:37;97163.47;;;15.84;61.88
49943;BME280;36011;53.362;58.948;2022-08-14T00:35:41;97168.69;;;15.86;61.68
49943;BME280;36011;53.362;58.948;2022-08-14T00:38:45;97174.69;;;15.88;61.34
49943;BME280;36011;53.362;58.948;2022-08-14T00:41:46;97173.84;;;15.87;61.48
49943;BME280;36011;53.362;58.948;2022-08-14T00:44:55;97183.63;;;15.87;61.54
49943;BME280;36011;53.362;58.948;2022-08-14T00:48:00;97180.22;;;15.85;61.35
49943;BME280;36011;53.362;58.948;2022-08-14T00:51:04;97174.94;;;15.85;61.73
49943;BME280;36011;53.362;58.948;2022-08-14T00:54:09;97176.50;;;15.87;61.28
49943;BME280;36011;53.362;58.948;2022-08-14T00:57:12;97179.97;;;15.88;61.18
49943;BME280;36011;53.362;58.948;2022-08-14T01:00:16;97183.50;;;15.88;60.76
49943;BME280;36011;53.362;58.948;2022-08-14T01:03:20;97183.38;;;15.90;60.93
49943;BME280;36011;53.362;58.948;2022-08-14T01:06:21;97183.13;;;15.93;60.76
49943;BME280;36011;53.362;58.948;2022-08-14T01:09:25;97191.53;;;15.98;60.83
49943;BME280;36011;53.362;58.948;2022-08-14T01:12:30;97191.91;;;15.93;61.14
49943;BME280;36011;53.362;58.948;2022-08-14T01:15:38;97196.38;;;15.93;60.61
49943;BME280;36011;53.362;58.948;2022-08-14T01:18:42;97192.06;;;15.92;60.88
49943;BME280;36011;53.362;58.948;2022-08-14T01:22:02;97199.03;;;15.93;60.86
49943;BME280;36011;53.362;58.948;2022-08-14T01:25:03;97209.53;;;15.94;62.03
49943;BME280;36011;53.362;58.948;2022-08-14T01:28:05;97201.06;;;16.01;61.21
49943;BME280;36011;53.362;58.948;2022-08-14T01:31:11;97196.97;;;16.08;60.62
49943;BME280;36011;53.362;58.948;2022-08-14T01:34:15;97197.53;;;16.11;60.43
49943;BME280;36011;53.362;58.948;2022-08-14T01:37:21;97201.50;;;16.17;60.55
49943;BME280;36011;53.362;58.948;2022-08-14T01:40:30;97205.47;;;16.23;61.13
49943;BME280;36011;53.362;58.948;2022-08-14T01:43:31;97215.31;;;16.32;60.36
49943;BME280;36011;53.362;58.948;2022-08-14T01:46:39;97208.91;;;16.34;60.62
49943;BME280;36011;53.362;58.948;2022-08-14T01:49:46;97203.94;;;16.41;60.02
49943;BME280;36011;53.362;58.948;2022-08-14T01:52:51;97211.16;;;16.50;59.76
49943;BME280;36011;53.362;58.948;2022-08-14T01:55:56;97221.97;;;16.58;59.75
49943;BME280;36011;53.362;58.948;2022-08-14T01:59:00;97224.34;;;16.61;59.73
49943;BME280;36011;53.362;58.948;2022-08-14T02:02:06;97229.28;;;16.66;59.57
49943;BME280;36011;53.362;58.948;2022-08-14T02:05:12;97231.56;;;16.71;59.42
49943;BME280;36011;53.362;58.948;2022-08-14T02:08:13;97231.09;;;16.77;59.49
49943;BME280;36011;53.362;58.948;2022-08-14T02:11:14;97233.09;;;16.85;58.86
49943;BME280;36011;53.362;58.948;2022-08-14T02:14:24;97233.41;;;16.91;58.77
49943;BME280;36011;53.362;58.948;2022-08-14T02:17:25;97239.47;;;16.93;58.76
49943;BME280;36011;53.362;58.948;2022-08-14T02:20:30;97240.16;;;16.95;58.88
49943;BME280;36011;53.362;58.948;2022-08-14T02:23:34;97249.09;;;16.94;59.03
49943;BME280;36011;53.362;58.948;2022-08-14T02:26:36;97248.13;;;16.95;59.22
49943;BME280;36011;53.362;58.948;2022-08-14T02:29:37;97251.50;;;16.97;59.01
49943;BME280;36011;53.362;58.948;2022-08-14T02:32:42;97248.59;;;17.00;58.99
49943;BME280;36011;53.362;58.948;2022-08-14T02:35:46;97251.69;;;17.05;59.67
49943;BME280;36011;53.362;58.948;2022-08-14T02:38:48;97255.66;;;17.11;58.95
49943;BME280;36011;53.362;58.948;2022-08-14T02:41:52;97245.31;;;17.18;59.35
49943;BME280;36011;53.362;58.948;2022-08-14T02:44:53;97246.22;;;17.28;58.49
49943;BME280;36011;53.362;58.948;2022-08-14T02:47:57;97236.72;;;17.35;58.61
49943;BME280;36011;53.362;58.948;2022-08-14T02:51:01;97246.88;;;17.41;58.62
49943;BME280;36011;53.362;58.948;2022-08-14T02:54:06;97246.06;;;17.50;58.43
49943;BME280;36011;53.362;58.948;2022-08-14T02:57:07;97246.34;;;17.57;58.13
49943;BME280;36011;53.362;58.948;2022-08-14T03:00:11;97239.38;;;17.66;58.30
49943;BME280;36011;53.362;58.948;2022-08-14T03:03:13;97245.88;;;17.73;58.51
49943;BME280;36011;53.362;58.948;2022-08-14T03:06:17;97246.50;;;17.86;57.48
49943;BME280;36011;53.362;58.948;2022-08-14T03:09:20;97255.63;;;17.93;57.53
49943;BME280;36011;53.362;58.948;2022-08-14T03:12:23;97252.41;;;18.00;57.73
49943;BME280;36011;53.362;58.948;2022-08-14T03:15:24;97253.28;;;18.10;57.20
49943;BME280;36011;53.362;58.948;2022-08-14T03:18:28;97255.81;;;18.21;57.15
49943;BME280;36011;53.362;58.948;2022-08-14T03:21:30;97260.03;;;18.24;57.31
49943;BME280;36011;53.362;58.948;2022-08-14T03:24:39;97253.59;;;18.26;57.27
49943;BME280;36011;53.362;58.948;2022-08-14T03:27:40;97253.03;;;18.32;57.14
49943;BME280;36011;53.362;58.948;2022-08-14T03:30:46;97254.59;;;18.45;57.08
49943;BME280;36011;53.362;58.948;2022-08-14T03:33:48;97257.53;;;18.61;56.68
49943;BME280;36011;53.362;58.948;2022-08-14T03:36:51;97252.81;;;18.74;56.23
49943;BME280;36011;53.362;58.948;2022-08-14T03:39:57;97253.34;;;18.88;55.84
49943;BME280;36011;53.362;58.948;2022-08-14T03:43:01;97264.56;;;19.01;55.16
49943;BME280;36011;53.362;58.948;2022-08-14T03:46:05;97260.06;;;19.11;55.11
49943;BME280;36011;53.362;58.948;2022-08-14T03:49:10;97263.41;;;19.23;54.16
49943;BME280;36011;53.362;58.948;2022-08-14T03:52:11;97260.88;;;19.31;54.09
49943;BME280;36011;53.362;58.948;2022-08-14T03:55:15;97259.81;;;19.42;53.90
49943;BME280;36011;53.362;58.948;2022-08-14T03:58:16;97261.63;;;19.51;53.35
49943;BME280;36011;53.362;58.948;2022-08-14T04:01:18;97258.09;;;19.60;52.99
49943;BME280;36011;53.362;58.948;2022-08-14T04:04:22;97267.25;;;19.67;52.73
49943;BME280;36011;53.362;58.948;2022-08-14T04:07:26;97265.50;;;19.76;52.55
49943;BME280;36011;53.362;58.948;2022-08-14T04:10:30;97259.41;;;19.84;51.84
49943;BME280;36011;53.362;58.948;2022-08-14T04:13:32;97257.16;;;19.89;51.74
49943;BME280;36011;53.362;58.948;2022-08-14T04:16:37;97255.56;;;19.96;51.27
49943;BME280;36011;53.362;58.948;2022-08-14T04:19:41;97260.63;;;19.99;51.00
49943;BME280;36011;53.362;58.948;2022-08-14T04:22:43;97256.03;;;20.09;50.59
49943;BME280;36011;53.362;58.948;2022-08-14T04:25:47;97254.00;;;20.21;50.61
49943;BME280;36011;53.362;58.948;2022-08-14T04:28:49;97256.63;;;20.31;50.17
49943;BME280;36011;53.362;58.948;2022-08-14T04:31:50;97261.75;;;20.42;49.82
49943;BME280;36011;53.362;58.948;2022-08-14T04:34:54;97260.84;;;20.51;49.45
49943;BME280;36011;53.362;58.948;2022-08-14T04:37:55;97258.81;;;20.63;49.36
49943;BME280;36011;53.362;58.948;2022-08-14T04:41:14;97262.06;;;20.75;48.80
49943;BME280;36011;53.362;58.948;2022-08-14T04:44:33;97259.03;;;20.88;48.24
49943;BME280;36011;53.362;58.948;2022-08-14T04:47:36;97257.94;;;20.98;48.30
49943;BME280;36011;53.362;58.948;2022-08-14T04:50:58;97256.06;;;21.17;47.93
49943;BME280;36011;53.362;58.948;2022-08-14T04:54:00;97253.50;;;21.33;47.57
49943;BME280;36011;53.362;58.948;2022-08-14T04:57:01;97258.41;;;22.49;45.42
49943;BME280;36011;53.362;58.948;2022-08-14T05:00:04;97264.50;;;27.19;38.21
49943;BME280;36011;53.362;58.948;2022-08-14T05:03:09;97272.66;;;32.57;26.95
49943;BME280;36011;53.362;58.948;2022-08-14T05:06:11;97280.66;;;36.95;25.11
49943;BME280;36011;53.362;58.948;2022-08-14T05:09:12;97282.16;;;40.67;25.43
49943;BME280;36011;53.362;58.948;2022-08-14T05:12:18;97277.72;;;43.75;22.70
49943;BME280;36011;53.362;58.948;2022-08-14T05:15:24;97280.84;;;46.10;17.77
49943;BME280;36011;53.362;58.948;2022-08-14T05:18:35;97279.31;;;47.88;18.02
49943;BME280;36011;53.362;58.948;2022-08-14T05:21:39;97285.38;;;49.38;18.35
49943;BME280;36011;53.362;58.948;2022-08-14T05:24:44;97280.31;;;50.31;17.90
49943;BME280;36011;53.362;58.948;2022-08-14T05:27:48;97286.78;;;51.09;15.55
49943;BME280;36011;53.362;58.948;2022-08-14T05:30:54;97285.34;;;52.00;16.60
49943;BME280;36011;53.362;58.948;2022-08-14T05:34:01;97281.28;;;53.12;15.82
49943;BME280;36011;53.362;58.948;2022-08-14T05:37:05;97284.38;;;54.31;13.41
49943;BME280;36011;53.362;58.948;2022-08-14T05:40:07;97290.63;;;54.66;13.17
49943;BME280;36011;53.362;58.948;2022-08-14T05:43:14;97283.53;;;55.33;11.45
49943;BME280;36011;53.362;58.948;2022-08-14T05:46:18;97277.25;;;55.50;8.92
49943;BME280;36011;53.362;58.948;2022-08-14T05:49:22;97274.78;;;55.45;9.72
49943;BME280;36011;53.362;58.948;2022-08-14T05:52:26;97281.50;;;56.04;11.34
49943;BME280;36011;53.362;58.948;2022-08-14T05:55:28;97278.88;;;56.81;10.65
49943;BME280;36011;53.362;58.948;2022-08-14T05:58:29;97279.59;;;57.41;9.51
49943;BME280;36011;53.362;58.948;2022-08-14T06:01:35;97266.81;;;57.83;5.88
49943;BME280;36011;53.362;58.948;2022-08-14T06:04:38;97278.13;;;58.04;5.82
49943;BME280;36011;53.362;58.948;2022-08-14T06:07:42;97278.16;;;57.97;9.64
49943;BME280;36011;53.362;58.948;2022-08-14T06:10:45;97276.41;;;57.46;7.55
49943;BME280;36011;53.362;58.948;2022-08-14T06:13:49;97267.03;;;56.58;6.49
49943;BME280;36011;53.362;58.948;2022-08-14T06:16:51;97259.22;;;55.58;5.31
49943;BME280;36011;53.362;58.948;2022-08-14T06:19:53;97261.56;;;55.90;5.42
49943;BME280;36011;53.362;58.948;2022-08-14T06:22:55;97263.00;;;56.59;4.85
49943;BME280;36011;53.362;58.948;2022-08-14T06:25:58;97263.41;;;57.34;5.88
49943;BME280;36011;53.362;58.948;2022-08-14T06:29:01;97255.13;;;56.89;5.52
49943;BME280;36011;53.362;58.948;2022-08-14T06:32:03;97258.03;;;55.59;5.89
49943;BME280;36011;53.362;58.948;2022-08-14T06:35:05;97255.13;;;55.19;5.81
49943;BME280;36011;53.362;58.948;2022-08-14T06:38:12;97241.34;;;54.07;6.12
49943;BME280;36011;53.362;58.948;2022-08-14T06:41:16;97235.38;;;53.08;6.39
49943;BME280;36011;53.362;58.948;2022-08-14T06:44:23;97233.59;;;53.00;6.53
49943;BME280;36011;53.362;58.948;2022-08-14T06:47:24;97238.06;;;53.39;6.65
49943;BME280;36011;53.362;58.948;2022-08-14T06:50:27;97237.50;;;54.42;5.51
49943;BME280;36011;53.362;58.948;2022-08-14T06:53:29;97238.22;;;55.93;6.21
49943;BME280;36011;53.362;58.948;2022-08-14T06:56:34;97246.38;;;56.06;5.18
49943;BME280;36011;53.362;58.948;2022-08-14T06:59:37;97238.09;;;55.45;5.29
49943;BME280;36011;53.362;58.948;2022-08-14T07:02:40;97244.25;;;55.54;5.63
49943;BME280;36011;53.362;58.948;2022-08-14T07:06:00;97241.88;;;57.11;5.49
49943;BME280;36011;53.362;58.948;2022-08-14T07:09:06;97254.69;;;58.36;5.29
49943;BME280;36011;53.362;58.948;2022-08-14T07:12:11;97248.75;;;59.43;4.68
49943;BME280;36011;53.362;58.948;2022-08-14T07:15:13;97244.44;;;59.84;3.45
49943;BME280;36011;53.362;58.948;2022-08-14T07:18:19;97244.66;;;59.51;4.07
49943;BME280;36011;53.362;58.948;2022-08-14T07:21:22;97241.91;;;59.33;4.68
49943;BME280;36011;53.362;58.948;2022-08-14T07:24:26;97233.19;;;58.78;4.13
49943;BME280;36011;53.362;58.948;2022-08-14T07:27:29;97232.59;;;59.33;4.28
49943;BME280;36011;53.362;58.948;2022-08-14T07:30:34;97233.53;;;59.79;4.29
49943;BME280;36011;53.362;58.948;2022-08-14T07:33:39;97234.41;;;58.62;4.79
49943;BME280;36011;53.362;58.948;2022-08-14T07:36:44;97224.72;;;57.77;4.43
49943;BME280;36011;53.362;58.948;2022-08-14T07:39:47;97206.56;;;54.45;5.38
49943;BME280;36011;53.362;58.948;2022-08-14T07:42:48;97191.38;;;49.79;8.26
49943;BME280;36011;53.362;58.948;2022-08-14T07:45:50;97180.50;;;47.33;9.31
49943;BME280;36011;53.362;58.948;2022-08-14T07:48:53;97186.13;;;49.32;8.19
49943;BME280;36011;53.362;58.948;2022-08-14T07:51:56;97182.97;;;52.10;7.01
49943;BME280;36011;53.362;58.948;2022-08-14T07:54:59;97185.09;;;54.11;6.07
49943;BME280;36011;53.362;58.948;2022-08-14T07:58:02;97189.81;;;55.91;4.97
49943;BME280;36011;53.362;58.948;2022-08-14T08:01:05;97203.66;;;57.61;4.58
49943;BME280;36011;53.362;58.948;2022-08-14T08:04:09;97199.28;;;56.79;4.85
49943;BME280;36011;53.362;58.948;2022-08-14T08:07:12;97193.88;;;57.22;4.10
49943;BME280;36011;53.362;58.948;2022-08-14T08:10:20;97196.00;;;58.47;4.35
49943;BME280;36011;53.362;58.948;2022-08-14T08:13:32;97199.25;;;57.92;3.64
49943;BME280;36011;53.362;58.948;2022-08-14T08:16:36;97189.66;;;56.87;4.36
49943;BME280;36011;53.362;58.948;2022-08-14T08:19:40;97186.56;;;57.21;4.21
49943;BME280;36011;53.362;58.948;2022-08-14T08:22:44;97193.16;;;58.40;4.24
49943;BME280;36011;53.362;58.948;2022-08-14T08:25:48;97195.16;;;59.52;4.34
49943;BME280;36011;53.362;58.948;2022-08-14T08:28:55;97196.88;;;59.39;4.12
49943;BME280;36011;53.362;58.948;2022-08-14T08:31:59;97201.69;;;59.49;4.02
49943;BME280;36011;53.362;58.948;2022-08-14T08:35:02;97192.34;;;60.05;3.62
49943;BME280;36011;53.362;58.948;2022-08-14T08:38:06;97200.63;;;60.75;3.43
49943;BME280;36011;53.362;58.948;2022-08-14T08:41:10;97201.16;;;60.21;3.23
49943;BME280;36011;53.362;58.948;2022-08-14T08:44:14;97193.53;;;59.55;3.99
49943;BME280;36011;53.362;58.948;2022-08-14T08:47:18;97204.31;;;60.30;3.40
49943;BME280;36011;53.362;58.948;2022-08-14T08:50:23;97200.63;;;60.71;3.46
49943;BME280;36011;53.362;58.948;2022-08-14T08:53:31;97193.63;;;60.41;3.61
49943;BME280;36011;53.362;58.948;2022-08-14T08:56:42;97193.09;;;60.57;3.31
49943;BME280;36011;53.362;58.948;2022-08-14T08:59:46;97197.50;;;60.20;3.44
49943;BME280;36011;53.362;58.948;2022-08-14T09:02:53;97190.63;;;60.18;2.93
49943;BME280;36011;53.362;58.948;2022-08-14T09:05:59;97190.28;;;60.09;3.10
49943;BME280;36011;53.362;58.948;2022-08-14T09:09:16;97184.41;;;59.89;3.21
49943;BME280;36011;53.362;58.948;2022-08-14T09:12:18;97176.28;;;59.87;3.14
49943;BME280;36011;53.362;58.948;2022-08-14T09:15:23;97179.88;;;59.95;2.94
49943;BME280;36011;53.362;58.948;2022-08-14T09:18:27;97178.38;;;59.76;3.57
49943;BME280;36011;53.362;58.948;2022-08-14T09:21:30;97170.59;;;59.28;3.18
49943;BME280;36011;53.362;58.948;2022-08-14T09:24:35;97165.66;;;58.30;3.46
49943;BME280;36011;53.362;58.948;2022-08-14T09:27:39;97149.09;;;57.78;3.27
49943;BME280;36011;53.362;58.948;2022-08-14T09:30:49;97147.88;;;57.68;3.83
49943;BME280;36011;53.362;58.948;2022-08-14T09:37:06;97142.97;;;58.26;3.71
49943;BME280;36011;53.362;58.948;2022-08-14T09:47:09;97125.19;;;56.34;4.31
49943;BME280;36011;53.362;58.948;2022-08-14T09:50:17;97124.91;;;54.49;4.54
49943;BME280;36011;53.362;58.948;2022-08-14T09:56:49;97109.75;;;54.31;5.05
49943;BME280;36011;53.362;58.948;2022-08-14T09:59:53;97116.16;;;54.88;4.55
49943;BME280;36011;53.362;58.948;2022-08-14T10:02:56;97117.41;;;54.60;4.62
49943;BME280;36011;53.362;58.948;2022-08-14T10:06:11;97108.78;;;53.93;5.26
49943;BME280;36011;53.362;58.948;2022-08-14T10:09:16;97111.66;;;53.27;5.69
49943;BME280;36011;53.362;58.948;2022-08-14T10:12:19;97108.28;;;52.60;5.80
49943;BME280;36011;53.362;58.948;2022-08-14T10:15:23;97093.41;;;51.09;6.31
49943;BME280;36011;53.362;58.948;2022-08-14T10:18:27;97090.47;;;50.49;6.49
49943;BME280;36011;53.362;58.948;2022-08-14T10:21:30;97086.34;;;50.59;6.32
49943;BME280;36011;53.362;58.948;2022-08-14T10:24:39;97090.03;;;50.75;6.28
49943;BME280;36011;53.362;58.948;2022-08-14T10:27:42;97089.91;;;51.28;6.06
49943;BME280;36011;53.362;58.948;2022-08-14T10:30:49;97084.31;;;51.44;6.03
49943;BME280;36011;53.362;58.948;2022-08-14T10:34:07;97088.75;;;51.01;6.40
49943;BME280;36011;53.362;58.948;2022-08-14T10:37:09;97081.44;;;50.56;6.66
49943;BME280;36011;53.362;58.948;2022-08-14T10:40:12;97085.28;;;50.23;6.67
49943;BME280;36011;53.362;58.948;2022-08-14T10:43:15;97085.50;;;50.30;6.58
49943;BME280;36011;53.362;58.948;2022-08-14T10:46:20;97084.41;;;49.95;6.74
49943;BME280;36011;53.362;58.948;2022-08-14T10:49:24;97080.75;;;49.12;7.10
49943;BME280;36011;53.362;58.948;2022-08-14T10:52:32;97074.44;;;48.90;7.36
49943;BME280;36011;53.362;58.948;2022-08-14T10:55:39;97069.78;;;48.94;7.30
49943;BME280;36011;53.362;58.948;2022-08-14T10:58:40;97069.03;;;49.18;7.03
49943;BME280;36011;53.362;58.948;2022-08-14T11:01:43;97071.66;;;49.03;7.44
49943;BME280;36011;53.362;58.948;2022-08-14T11:04:56;97069.72;;;48.82;7.47
49943;BME280;36011;53.362;58.948;2022-08-14T11:07:58;97074.53;;;48.61;7.69
49943;BME280;36011;53.362;58.948;2022-08-14T11:11:02;97067.66;;;48.37;7.71
49943;BME280;36011;53.362;58.948;2022-08-14T11:14:07;97064.81;;;48.25;7.76
49943;BME280;36011;53.362;58.948;2022-08-14T11:17:11;97055.59;;;47.74;7.80
49943;BME280;36011;53.362;58.948;2022-08-14T11:20:17;97052.09;;;47.00;8.57
49943;BME280;36011;53.362;58.948;2022-08-14T11:23:19;97049.84;;;46.41;8.79
49943;BME280;36011;53.362;58.948;2022-08-14T11:26:21;97042.16;;;46.47;8.70
49943;BME280;36011;53.362;58.948;2022-08-14T11:29:25;97042.63;;;46.05;8.88
49943;BME280;36011;53.362;58.948;2022-08-14T11:32:29;97038.97;;;45.30;9.31
49943;BME280;36011;53.362;58.948;2022-08-14T11:35:31;97038.22;;;44.40;9.93
49943;BME280;36011;53.362;58.948;2022-08-14T11:38:42;97033.19;;;44.05;10.17
49943;BME280;36011;53.362;58.948;2022-08-14T11:41:47;97042.81;;;43.94;9.81
49943;BME280;36011;53.362;58.948;2022-08-14T11:44:49;97029.28;;;43.51;10.08
49943;BME280;36011;53.362;58.948;2022-08-14T11:47:53;97033.13;;;43.09;10.69
49943;BME280;36011;53.362;58.948;2022-08-14T11:50:56;97032.28;;;42.80;10.30
49943;BME280;36011;53.362;58.948;2022-08-14T11:54:01;97033.06;;;42.67;10.38
49943;BME280;36011;53.362;58.948;2022-08-14T11:57:03;97031.81;;;42.41;10.80
49943;BME280;36011;53.362;58.948;2022-08-14T12:00:07;97032.84;;;42.07;10.84
49943;BME280;36011;53.362;58.948;2022-08-14T12:03:11;97030.06;;;41.69;11.38
49943;BME280;36011;53.362;58.948;2022-08-14T12:06:16;97035.53;;;41.26;11.50
49943;BME280;36011;53.362;58.948;2022-08-14T12:12:29;97028.78;;;40.45;11.96
49943;BME280;36011;53.362;58.948;2022-08-14T12:15:36;97024.88;;;40.11;12.28
49943;BME280;36011;53.362;58.948;2022-08-14T12:18:41;97036.94;;;39.66;12.42
49943;BME280;36011;53.362;58.948;2022-08-14T12:21:49;97021.97;;;39.33;12.95
49943;BME280;36011;53.362;58.948;2022-08-14T12:24:50;97026.66;;;39.22;12.69
49943;BME280;36011;53.362;58.948;2022-08-14T12:27:56;97025.78;;;39.26;12.73
49943;BME280;36011;53.362;58.948;2022-08-14T12:30:57;97025.84;;;39.16;12.74
49943;BME280;36011;53.362;58.948;2022-08-14T12:34:05;97022.03;;;38.87;13.31
49943;BME280;36011;53.362;58.948;2022-08-14T12:37:11;97029.72;;;38.64;13.59
49943;BME280;36011;53.362;58.948;2022-08-14T12:40:12;97028.34;;;38.26;13.73
49943;BME280;36011;53.362;58.948;2022-08-14T12:43:18;97025.75;;;37.83;14.34
49943;BME280;36011;53.362;58.948;2022-08-14T12:46:29;97019.06;;;37.48;14.44
49943;BME280;36011;53.362;58.948;2022-08-14T12:49:32;97021.97;;;37.26;14.55
49943;BME280;36011;53.362;58.948;2022-08-14T12:52:39;97016.69;;;37.20;14.65
49943;BME280;36011;53.362;58.948;2022-08-14T12:55:43;97023.25;;;37.14;14.68
49943;BME280;36011;53.362;58.948;2022-08-14T12:58:48;97022.31;;;36.98;14.78
49943;BME280;36011;53.362;58.948;2022-08-14T13:01:54;97016.94;;;36.71;14.45
49943;BME280;36011;53.362;58.948;2022-08-14T13:04:56;97017.13;;;36.32;14.66
49943;BME280;36011;53.362;58.948;2022-08-14T13:08:03;97009.69;;;36.00;15.08
49943;BME280;36011;53.362;58.948;2022-08-14T13:11:06;97014.75;;;35.59;15.40
49943;BME280;36011;53.362;58.948;2022-08-14T13:14:13;97011.25;;;35.03;15.79
49943;BME280;36011;53.362;58.948;2022-08-14T13:17:20;97006.97;;;34.39;16.06
49943;BME280;36011;53.362;58.948;2022-08-14T13:20:24;97008.28;;;33.91;16.63
49943;BME280;36011;53.362;58.948;2022-08-14T13:23:31;96999.19;;;33.45;16.91
49943;BME280;36011;53.362;58.948;2022-08-14T13:26:34;97000.13;;;33.11;17.31
49943;BME280;36011;53.362;58.948;2022-08-14T13:29:40;97002.16;;;32.80;17.31
49943;BME280;36011;53.362;58.948;2022-08-14T13:32:46;97009.13;;;32.52;17.44
49943;BME280;36011;53.362;58.948;2022-08-14T13:35:49;97012.34;;;32.07;18.44
49943;BME280;36011;53.362;58.948;2022-08-14T13:38:55;97014.47;;;31.75;18.42
49943;BME280;36011;53.362;58.948;2022-08-14T13:42:00;97012.53;;;31.64;18.51
49943;BME280;36011;53.362;58.948;2022-08-14T13:45:07;97015.81;;;31.54;18.11
49943;BME280;36011;53.362;58.948;2022-08-14T13:48:11;97023.50;;;31.39;18.42
49943;BME280;36011;53.362;58.948;2022-08-14T13:51:15;97014.75;;;31.18;18.71
49943;BME280;36011;53.362;58.948;2022-08-14T13:54:17;97021.69;;;30.96;19.35
49943;BME280;36011;53.362;58.948;2022-08-14T13:57:21;97015.53;;;30.82;19.50
49943;BME280;36011;53.362;58.948;2022-08-14T14:00:23;97016.22;;;30.77;19.58
49943;BME280;36011;53.362;58.948;2022-08-14T14:03:24;97014.50;;;30.58;19.88
49943;BME280;36011;53.362;58.948;2022-08-14T14:06:28;97015.50;;;30.38;20.02
49943;BME280;36011;53.362;58.948;2022-08-14T14:09:33;97021.91;;;30.19;20.26
49943;BME280;36011;53.362;58.948;2022-08-14T14:12:37;97017.22;;;30.01;20.46
49943;BME280;36011;53.362;58.948;2022-08-14T14:15:42;97019.00;;;29.82;20.58
49943;BME280;36011;53.362;58.948;2022-08-14T14:18:47;97018.88;;;29.70;20.69
49943;BME280;36011;53.362;58.948;2022-08-14T14:21:49;97017.66;;;29.60;20.92
49943;BME280;36011;53.362;58.948;2022-08-14T14:24:53;97011.50;;;29.39;21.20
49943;BME280;36011;53.362;58.948;2022-08-14T14:27:57;97015.78;;;29.08;21.67
49943;BME280;36011;53.362;58.948;2022-08-14T14:31:04;97013.75;;;28.71;22.28
49943;BME280;36011;53.362;58.948;2022-08-14T14:34:05;97016.44;;;28.31;22.73
49943;BME280;36011;53.362;58.948;2022-08-14T14:37:12;97010.81;;;27.86;23.19
49943;BME280;36011;53.362;58.948;2022-08-14T14:40:15;97023.19;;;27.60;23.55
49943;BME280;36011;53.362;58.948;2022-08-14T14:43:17;97026.84;;;27.33;23.70
49943;BME280;36011;53.362;58.948;2022-08-14T14:46:21;97023.13;;;27.05;23.90
49943;BME280;36011;53.362;58.948;2022-08-14T14:49:23;97024.47;;;26.81;24.36
49943;BME280;36011;53.362;58.948;2022-08-14T14:52:24;97025.13;;;26.55;24.62
49943;BME280;36011;53.362;58.948;2022-08-14T14:55:32;97030.16;;;26.43;25.25
49943;BME280;36011;53.362;58.948;2022-08-14T14:58:34;97032.78;;;26.30;25.35
49943;BME280;36011;53.362;58.948;2022-08-14T15:01:36;97039.28;;;26.14;25.46
49943;BME280;36011;53.362;58.948;2022-08-14T15:04:42;97041.41;;;25.97;25.28
49943;BME280;36011;53.362;58.948;2022-08-14T15:07:44;97037.63;;;25.77;25.86
49943;BME280;36011;53.362;58.948;2022-08-14T15:10:48;97041.59;;;25.60;26.15
49943;BME280;36011;53.362;58.948;2022-08-14T15:13:54;97047.59;;;25.40;26.04
49943;BME280;36011;53.362;58.948;2022-08-14T15:16:55;97046.97;;;25.23;26.84
49943;BME280;36011;53.362;58.948;2022-08-14T15:19:59;97048.59;;;25.09;27.13
49943;BME280;36011;53.362;58.948;2022-08-14T15:23:04;97047.78;;;24.94;27.24
49943;BME280;36011;53.362;58.948;2022-08-14T15:26:06;97049.25;;;24.82;27.70
49943;BME280;36011;53.362;58.948;2022-08-14T15:29:08;97052.41;;;24.71;27.82
49943;BME280;36011;53.362;58.948;2022-08-14T15:32:11;97056.94;;;24.55;28.08
49943;BME280;36011;53.362;58.948;2022-08-14T15:35:13;97060.09;;;24.36;28.42
49943;BME280;36011;53.362;58.948;2022-08-14T15:38:14;97070.31;;;24.17;28.53
49943;BME280;36011;53.362;58.948;2022-08-14T15:41:20;97076.47;;;24.03;28.63
49943;BME280;36011;53.362;58.948;2022-08-14T15:44:21;97074.22;;;23.92;28.86
49943;BME280;36011;53.362;58.948;2022-08-14T15:47:23;97079.72;;;23.75;28.96
49943;BME280;36011;53.362;58.948;2022-08-14T15:50:25;97083.47;;;23.58;29.06
49943;BME280;36011;53.362;58.948;2022-08-14T15:53:28;97086.19;;;23.50;29.40
49943;BME280;36011;53.362;58.948;2022-08-14T15:56:32;97092.00;;;23.30;29.43
49943;BME280;36011;53.362;58.948;2022-08-14T15:59:33;97091.69;;;23.17;29.28
49943;BME280;36011;53.362;58.948;2022-08-14T16:02:53;97100.81;;;23.00;29.20
49943;BME280;36011;53.362;58.948;2022-08-14T16:05:57;97104.00;;;22.95;29.65
49943;BME280;36011;53.362;58.948;2022-08-14T16:09:01;97106.84;;;22.94;29.50
49943;BME280;36011;53.362;58.948;2022-08-14T16:12:05;97110.22;;;22.79;29.61
49943;BME280;36011;53.362;58.948;2022-08-14T16:15:06;97104.19;;;22.61;29.68
49943;BME280;36011;53.362;58.948;2022-08-14T16:18:11;97120.28;;;22.53;29.68
49943;BME280;36011;53.362;58.948;2022-08-14T16:21:15;97118.97;;;22.49;29.71
49943;BME280;36011;53.362;58.948;2022-08-14T16:24:23;97124.66;;;22.46;29.82